Accueil
METAR-TAF:

METAR-TAF

Aéroports :

Erzurum, Turquie

latitude: 39-55N, longitude: 041-16E, altitude: 1756 m

Observation

Le bulletin a été fait il y a 40 minutes, à 15:50 UTC
Vent 7 kt de sud/sud-ouest
Température 17°C
Humidité 29%
Pression 1017 hPa
Visibilité 10 km ou plus
pas de nuages en-dessous de 1500 mètres et pas de cumulonimbus.

METAR: LTCE 171550Z 20007KT CAVOK 17/M01 Q1017 NOSIG RMK RWY08R 17008KT RWY26R 20007KT RWY08L 19007KT 2AC100

Heure: 19:30 (16:30 UTC)

Prévision

Le bulletin a été fait il y a 5 heures et 50 minutes, à 10:40 UTC
Prévision valable du 17 à 12 UTC au 18 à 12 UTC
Vent 7 kt de sud/sud-ouest
Visibilité 10 km ou plus
pas de nuages en-dessous de 1500 mètres et pas de cumulonimbus.
Evoluant progressivement
du 18 à 09 UTC au 18 à 11 UTC
Quelques nuages à une hauteur de 4000 ft
Nuages épars à une hauteur de 8000 ft

TAF: LTCE 171040Z 1712/1812 20007KT CAVOK BECMG 1809/1811 FEW040 SCT080

Observations et prévisions météorologiques de plus de 4000 aéroports (messages METAR et TAF).

Les stations disponibles sont représentées par des disques jaunes et rouges sur la carte.

Passer la souris dessus pour voir le nom de la station.

Cliquer dessus pour voir les observations et prévisions météorologiques.

Pour changer de carte: cliquez sur les boutons verts avec une croix noire pour zoomer, sur le bouton vert avec un tiret pour effectuer un zoom arrière, ou sur les flèches vertes pour les cartes adjacentes.


METAR-TAF: